sensor_id;sensor_type;location;lat;lon;timestamp;pressure;altitude;pressure_sealevel;temperature;humidity
9091;BME280;4581;42.416;25.598;2024-02-15T00:00:18;98701.41;;;8.36;71.31
9091;BME280;4581;42.416;25.598;2024-02-15T00:02:45;98706.78;;;8.36;72.32
9091;BME280;4581;42.416;25.598;2024-02-15T00:05:12;98711.22;;;8.45;71.24
9091;BME280;4581;42.416;25.598;2024-02-15T00:07:41;98713.75;;;8.47;71.83
9091;BME280;4581;42.416;25.598;2024-02-15T00:10:08;98710.25;;;8.29;71.98
9091;BME280;4581;42.416;25.598;2024-02-15T00:12:35;98715.09;;;8.25;72.31
9091;BME280;4581;42.416;25.598;2024-02-15T00:15:02;98712.81;;;8.30;72.54
9091;BME280;4581;42.416;25.598;2024-02-15T00:17:29;98719.84;;;8.31;71.58
9091;BME280;4581;42.416;25.598;2024-02-15T00:19:57;98718.19;;;8.30;71.13
9091;BME280;4581;42.416;25.598;2024-02-15T00:22:23;98724.66;;;8.28;71.04
9091;BME280;4581;42.416;25.598;2024-02-15T00:24:50;98724.66;;;8.28;71.13
9091;BME280;4581;42.416;25.598;2024-02-15T00:27:17;98721.53;;;8.32;71.35
9091;BME280;4581;42.416;25.598;2024-02-15T00:29:44;98723.56;;;8.30;70.98
9091;BME280;4581;42.416;25.598;2024-02-15T00:32:11;98726.38;;;8.29;69.88
9091;BME280;4581;42.416;25.598;2024-02-15T00:34:38;98723.81;;;8.27;69.43
9091;BME280;4581;42.416;25.598;2024-02-15T00:37:05;98727.22;;;8.29;70.24
9091;BME280;4581;42.416;25.598;2024-02-15T00:39:32;98727.06;;;8.31;71.45
9091;BME280;4581;42.416;25.598;2024-02-15T00:41:59;98725.59;;;8.19;72.92
9091;BME280;4581;42.416;25.598;2024-02-15T00:44:27;98726.44;;;8.19;72.04
9091;BME280;4581;42.416;25.598;2024-02-15T00:46:54;98729.97;;;8.20;72.58
9091;BME280;4581;42.416;25.598;2024-02-15T00:49:20;98725.50;;;8.11;72.85
9091;BME280;4581;42.416;25.598;2024-02-15T00:51:48;98724.31;;;8.05;71.53
9091;BME280;4581;42.416;25.598;2024-02-15T00:54:15;98722.69;;;8.12;70.45
9091;BME280;4581;42.416;25.598;2024-02-15T00:56:42;98719.94;;;8.04;68.01
9091;BME280;4581;42.416;25.598;2024-02-15T00:59:09;98711.22;;;8.02;69.11
9091;BME280;4581;42.416;25.598;2024-02-15T01:01:36;98720.00;;;8.12;68.97
9091;BME280;4581;42.416;25.598;2024-02-15T01:04:07;98717.69;;;8.17;66.95
9091;BME280;4581;42.416;25.598;2024-02-15T01:06:34;98718.31;;;8.11;66.04
9091;BME280;4581;42.416;25.598;2024-02-15T01:09:02;98714.94;;;8.09;66.37
9091;BME280;4581;42.416;25.598;2024-02-15T01:11:30;98726.22;;;8.13;66.23
9091;BME280;4581;42.416;25.598;2024-02-15T01:14:01;98719.78;;;8.06;66.43
9091;BME280;4581;42.416;25.598;2024-02-15T01:16:28;98715.94;;;8.08;66.03
9091;BME280;4581;42.416;25.598;2024-02-15T01:18:55;98709.19;;;8.04;65.98
9091;BME280;4581;42.416;25.598;2024-02-15T01:21:22;98716.09;;;8.07;66.50
9091;BME280;4581;42.416;25.598;2024-02-15T01:23:48;98714.63;;;8.12;66.17
9091;BME280;4581;42.416;25.598;2024-02-15T01:26:15;98707.34;;;8.05;65.84
9091;BME280;4581;42.416;25.598;2024-02-15T01:28:42;98703.81;;;8.04;66.41
9091;BME280;4581;42.416;25.598;2024-02-15T01:31:10;98704.53;;;8.06;66.46
9091;BME280;4581;42.416;25.598;2024-02-15T01:33:37;98702.84;;;8.05;66.36
9091;BME280;4581;42.416;25.598;2024-02-15T01:36:05;98699.75;;;8.00;66.40
9091;BME280;4581;42.416;25.598;2024-02-15T01:38:32;98706.97;;;7.99;66.38
9091;BME280;4581;42.416;25.598;2024-02-15T01:40:59;98701.47;;;8.01;66.38
9091;BME280;4581;42.416;25.598;2024-02-15T01:43:25;98704.16;;;8.01;66.58
9091;BME280;4581;42.416;25.598;2024-02-15T01:45:52;98706.44;;;7.96;66.73
9091;BME280;4581;42.416;25.598;2024-02-15T01:48:19;98710.03;;;7.87;66.55
9091;BME280;4581;42.416;25.598;2024-02-15T01:50:46;98710.13;;;7.95;66.83
9091;BME280;4581;42.416;25.598;2024-02-15T01:53:13;98711.06;;;7.86;67.93
9091;BME280;4581;42.416;25.598;2024-02-15T01:55:40;98701.63;;;7.82;67.54
9091;BME280;4581;42.416;25.598;2024-02-15T01:58:07;98705.91;;;7.75;66.42
9091;BME280;4581;42.416;25.598;2024-02-15T02:00:34;98709.97;;;7.79;66.60
9091;BME280;4581;42.416;25.598;2024-02-15T02:03:03;98707.59;;;7.76;67.54
9091;BME280;4581;42.416;25.598;2024-02-15T02:05:31;98708.44;;;7.76;66.94
9091;BME280;4581;42.416;25.598;2024-02-15T02:07:58;98707.22;;;7.71;66.55
9091;BME280;4581;42.416;25.598;2024-02-15T02:10:28;98709.44;;;7.75;66.83
9091;BME280;4581;42.416;25.598;2024-02-15T02:13:00;98709.75;;;7.72;67.49
9091;BME280;4581;42.416;25.598;2024-02-15T02:15:31;98708.81;;;7.64;67.60
9091;BME280;4581;42.416;25.598;2024-02-15T02:18:00;98706.00;;;7.65;67.97
9091;BME280;4581;42.416;25.598;2024-02-15T02:20:27;98709.72;;;7.54;67.12
9091;BME280;4581;42.416;25.598;2024-02-15T02:23:17;98719.38;;;7.47;67.78
9091;BME280;4581;42.416;25.598;2024-02-15T02:25:49;98717.47;;;7.40;68.52
9091;BME280;4581;42.416;25.598;2024-02-15T02:28:16;98720.28;;;7.38;68.81
9091;BME280;4581;42.416;25.598;2024-02-15T02:30:43;98713.69;;;7.33;69.51
9091;BME280;4581;42.416;25.598;2024-02-15T02:33:12;98713.34;;;7.18;69.51
9091;BME280;4581;42.416;25.598;2024-02-15T02:35:47;98716.53;;;7.04;70.87
9091;BME280;4581;42.416;25.598;2024-02-15T02:38:15;98709.56;;;6.84;71.13
9091;BME280;4581;42.416;25.598;2024-02-15T02:40:41;98721.78;;;6.69;71.95
9091;BME280;4581;42.416;25.598;2024-02-15T02:43:08;98724.63;;;6.57;72.58
9091;BME280;4581;42.416;25.598;2024-02-15T02:45:36;98716.75;;;6.46;73.24
9091;BME280;4581;42.416;25.598;2024-02-15T02:48:03;98722.69;;;6.40;73.13
9091;BME280;4581;42.416;25.598;2024-02-15T02:50:31;98727.63;;;6.35;73.40
9091;BME280;4581;42.416;25.598;2024-02-15T02:52:58;98720.88;;;6.41;73.19
9091;BME280;4581;42.416;25.598;2024-02-15T02:55:26;98730.13;;;6.46;73.06
9091;BME280;4581;42.416;25.598;2024-02-15T02:57:54;98721.59;;;6.33;73.70
9091;BME280;4581;42.416;25.598;2024-02-15T03:00:21;98727.50;;;6.27;74.50
9091;BME280;4581;42.416;25.598;2024-02-15T03:02:49;98722.44;;;6.34;73.84
9091;BME280;4581;42.416;25.598;2024-02-15T03:05:16;98713.44;;;6.25;74.03
9091;BME280;4581;42.416;25.598;2024-02-15T03:07:43;98726.69;;;6.17;74.25
9091;BME280;4581;42.416;25.598;2024-02-15T03:10:11;98710.50;;;6.09;75.13
9091;BME280;4581;42.416;25.598;2024-02-15T03:12:41;98721.34;;;6.17;75.30
9091;BME280;4581;42.416;25.598;2024-02-15T03:15:17;98728.34;;;6.18;75.10
9091;BME280;4581;42.416;25.598;2024-02-15T03:17:46;98731.75;;;6.10;75.74
9091;BME280;4581;42.416;25.598;2024-02-15T03:20:14;98725.00;;;6.06;75.75
9091;BME280;4581;42.416;25.598;2024-02-15T03:22:52;98719.81;;;6.05;75.86
9091;BME280;4581;42.416;25.598;2024-02-15T03:25:20;98728.38;;;5.99;76.35
9091;BME280;4581;42.416;25.598;2024-02-15T03:27:54;98733.31;;;5.94;76.25
9091;BME280;4581;42.416;25.598;2024-02-15T03:30:23;98740.78;;;6.00;76.38
9091;BME280;4581;42.416;25.598;2024-02-15T03:32:51;98745.16;;;6.01;76.20
9091;BME280;4581;42.416;25.598;2024-02-15T03:35:19;98740.78;;;6.00;76.07
9091;BME280;4581;42.416;25.598;2024-02-15T03:37:46;98740.78;;;6.00;76.46
9091;BME280;4581;42.416;25.598;2024-02-15T03:40:13;98740.78;;;6.00;76.37
9091;BME280;4581;42.416;25.598;2024-02-15T03:42:40;98735.00;;;5.95;77.14
9091;BME280;4581;42.416;25.598;2024-02-15T03:45:08;98746.81;;;6.02;76.88
9091;BME280;4581;42.416;25.598;2024-02-15T03:47:35;98742.75;;;5.98;77.57
9091;BME280;4581;42.416;25.598;2024-02-15T03:50:06;98743.16;;;5.84;78.18
9091;BME280;4581;42.416;25.598;2024-02-15T03:52:35;98744.84;;;5.85;78.35
9091;BME280;4581;42.416;25.598;2024-02-15T03:55:02;98744.28;;;5.81;78.43
9091;BME280;4581;42.416;25.598;2024-02-15T03:57:28;98750.75;;;5.79;78.14
9091;BME280;4581;42.416;25.598;2024-02-15T03:59:55;98747.22;;;5.69;78.75
9091;BME280;4581;42.416;25.598;2024-02-15T04:02:26;98749.75;;;5.70;79.37
9091;BME280;4581;42.416;25.598;2024-02-15T04:04:57;98754.38;;;5.58;79.88
9091;BME280;4581;42.416;25.598;2024-02-15T04:07:24;98755.38;;;5.57;79.85
9091;BME280;4581;42.416;25.598;2024-02-15T04:09:53;98754.78;;;5.54;80.08
9091;BME280;4581;42.416;25.598;2024-02-15T04:12:20;98752.81;;;5.46;80.30
9091;BME280;4581;42.416;25.598;2024-02-15T04:14:48;98751.28;;;5.44;80.16
9091;BME280;4581;42.416;25.598;2024-02-15T04:17:15;98752.66;;;5.38;79.76
9091;BME280;4581;42.416;25.598;2024-02-15T04:19:48;98748.72;;;5.33;80.75
9091;BME280;4581;42.416;25.598;2024-02-15T04:22:17;98753.91;;;5.34;80.69
9091;BME280;4581;42.416;25.598;2024-02-15T04:24:44;98742.94;;;5.28;80.57
9091;BME280;4581;42.416;25.598;2024-02-15T04:27:12;98746.03;;;5.33;80.20
9091;BME280;4581;42.416;25.598;2024-02-15T04:29:41;98737.88;;;5.25;80.53
9091;BME280;4581;42.416;25.598;2024-02-15T04:32:12;98733.09;;;5.28;79.82
9091;BME280;4581;42.416;25.598;2024-02-15T04:34:39;98739.25;;;5.19;80.27
9091;BME280;4581;42.416;25.598;2024-02-15T04:37:07;98740.06;;;5.10;81.24
9091;BME280;4581;42.416;25.598;2024-02-15T04:39:34;98736.97;;;5.05;81.43
9091;BME280;4581;42.416;25.598;2024-02-15T04:42:03;98748.34;;;5.07;80.86
9091;BME280;4581;42.416;25.598;2024-02-15T04:44:33;98741.75;;;5.11;80.23
9091;BME280;4581;42.416;25.598;2024-02-15T04:47:02;98749.09;;;5.18;80.12
9091;BME280;4581;42.416;25.598;2024-02-15T04:49:35;98754.84;;;5.14;80.30
9091;BME280;4581;42.416;25.598;2024-02-15T04:52:05;98754.16;;;5.12;80.24
9091;BME280;4581;42.416;25.598;2024-02-15T04:54:33;98750.50;;;5.13;80.88
9091;BME280;4581;42.416;25.598;2024-02-15T04:57:00;98758.19;;;5.06;81.31
9091;BME280;4581;42.416;25.598;2024-02-15T04:59:27;98761.44;;;5.10;81.06
9091;BME280;4581;42.416;25.598;2024-02-15T05:01:56;98764.38;;;5.07;81.08
9091;BME280;4581;42.416;25.598;2024-02-15T05:04:22;98768.75;;;5.08;80.99
9091;BME280;4581;42.416;25.598;2024-02-15T05:06:51;98766.78;;;5.10;81.24
9091;BME280;4581;42.416;25.598;2024-02-15T05:09:19;98767.34;;;5.04;81.00
9091;BME280;4581;42.416;25.598;2024-02-15T05:11:46;98764.25;;;5.08;81.29
9091;BME280;4581;42.416;25.598;2024-02-15T05:14:14;98767.06;;;5.07;81.29
9091;BME280;4581;42.416;25.598;2024-02-15T05:16:46;98768.31;;;5.03;81.20
9091;BME280;4581;42.416;25.598;2024-02-15T05:19:15;98773.53;;;5.04;81.12
9091;BME280;4581;42.416;25.598;2024-02-15T05:21:43;98775.22;;;5.05;80.74
9091;BME280;4581;42.416;25.598;2024-02-15T05:24:17;98775.47;;;5.02;81.50
9091;BME280;4581;42.416;25.598;2024-02-15T05:26:44;98775.47;;;5.02;81.60
9091;BME280;4581;42.416;25.598;2024-02-15T05:29:15;98773.47;;;4.95;81.95
9091;BME280;4581;42.416;25.598;2024-02-15T05:31:43;98773.75;;;4.92;81.50
9091;BME280;4581;42.416;25.598;2024-02-15T05:34:10;98782.47;;;4.94;81.89
9091;BME280;4581;42.416;25.598;2024-02-15T05:36:40;98792.44;;;4.92;82.30
9091;BME280;4581;42.416;25.598;2024-02-15T05:39:07;98797.53;;;4.95;82.31
9091;BME280;4581;42.416;25.598;2024-02-15T05:41:34;98791.59;;;4.91;82.79
9091;BME280;4581;42.416;25.598;2024-02-15T05:44:01;98794.84;;;4.95;82.75
9091;BME280;4581;42.416;25.598;2024-02-15T05:46:31;98797.66;;;4.93;82.50
9091;BME280;4581;42.416;25.598;2024-02-15T05:48:57;98803.53;;;4.87;83.18
9091;BME280;4581;42.416;25.598;2024-02-15T05:51:25;98802.75;;;4.96;83.18
9091;BME280;4581;42.416;25.598;2024-02-15T05:53:53;98806.84;;;5.00;82.90
9091;BME280;4581;42.416;25.598;2024-02-15T05:56:25;98815.53;;;5.02;83.27
9091;BME280;4581;42.416;25.598;2024-02-15T05:58:52;98814.47;;;5.05;83.15
9091;BME280;4581;42.416;25.598;2024-02-15T06:01:19;98828.28;;;5.19;83.03
9091;BME280;4581;42.416;25.598;2024-02-15T06:03:46;98825.22;;;5.34;82.18
9091;BME280;4581;42.416;25.598;2024-02-15T06:06:15;98832.72;;;5.40;82.13
9091;BME280;4581;42.416;25.598;2024-02-15T06:08:46;98838.38;;;5.46;82.65
9091;BME280;4581;42.416;25.598;2024-02-15T06:11:13;98840.97;;;5.57;82.46
9091;BME280;4581;42.416;25.598;2024-02-15T06:13:41;98836.91;;;5.73;80.77
9091;BME280;4581;42.416;25.598;2024-02-15T06:16:07;98845.78;;;5.83;80.86
9091;BME280;4581;42.416;25.598;2024-02-15T06:18:36;98844.88;;;5.93;80.72
9091;BME280;4581;42.416;25.598;2024-02-15T06:21:04;98846.69;;;6.02;80.22
9091;BME280;4581;42.416;25.598;2024-02-15T06:23:32;98844.03;;;6.12;79.59
9091;BME280;4581;42.416;25.598;2024-02-15T06:26:00;98859.66;;;6.26;78.72
9091;BME280;4581;42.416;25.598;2024-02-15T06:28:29;98842.19;;;6.32;77.99
9091;BME280;4581;42.416;25.598;2024-02-15T06:31:14;98856.28;;;6.43;76.08
9091;BME280;4581;42.416;25.598;2024-02-15T06:33:59;98849.09;;;6.63;75.45
9091;BME280;4581;42.416;25.598;2024-02-15T06:36:49;98846.53;;;6.71;78.20
9091;BME280;4581;42.416;25.598;2024-02-15T06:39:35;98850.63;;;6.85;77.33
9091;BME280;4581;42.416;25.598;2024-02-15T06:42:10;98857.78;;;6.94;77.73
9091;BME280;4581;42.416;25.598;2024-02-15T06:44:38;98853.38;;;7.02;77.14
9091;BME280;4581;42.416;25.598;2024-02-15T06:47:07;98862.38;;;7.11;76.31
9091;BME280;4581;42.416;25.598;2024-02-15T06:49:37;98856.47;;;7.07;76.30
9091;BME280;4581;42.416;25.598;2024-02-15T06:52:07;98851.94;;;7.18;75.91
9091;BME280;4581;42.416;25.598;2024-02-15T06:54:38;98860.34;;;7.32;73.22
9091;BME280;4581;42.416;25.598;2024-02-15T06:57:05;98860.91;;;7.36;74.91
9091;BME280;4581;42.416;25.598;2024-02-15T06:59:33;98857.75;;;7.50;75.08
9091;BME280;4581;42.416;25.598;2024-02-15T07:02:01;98851.59;;;7.30;76.64
9091;BME280;4581;42.416;25.598;2024-02-15T07:04:28;98857.44;;;7.53;75.73
9091;BME280;4581;42.416;25.598;2024-02-15T07:06:55;98857.09;;;7.66;75.22
9091;BME280;4581;42.416;25.598;2024-02-15T07:09:23;98853.41;;;7.67;75.61
9091;BME280;4581;42.416;25.598;2024-02-15T07:11:51;98855.72;;;7.62;76.03
9091;BME280;4581;42.416;25.598;2024-02-15T07:14:19;98861.66;;;7.83;73.80
9091;BME280;4581;42.416;25.598;2024-02-15T07:16:47;98863.22;;;8.03;73.27
9091;BME280;4581;42.416;25.598;2024-02-15T07:19:16;98872.19;;;8.57;70.02
9091;BME280;4581;42.416;25.598;2024-02-15T07:21:44;98869.78;;;9.15;67.35
9091;BME280;4581;42.416;25.598;2024-02-15T07:24:12;98872.09;;;9.35;65.35
9091;BME280;4581;42.416;25.598;2024-02-15T07:26:40;98878.31;;;9.62;63.82
9091;BME280;4581;42.416;25.598;2024-02-15T07:29:07;98873.22;;;10.01;65.27
9091;BME280;4581;42.416;25.598;2024-02-15T07:31:35;98878.38;;;10.20;61.41
9091;BME280;4581;42.416;25.598;2024-02-15T07:34:02;98878.50;;;10.10;61.73
9091;BME280;4581;42.416;25.598;2024-02-15T07:36:33;98872.84;;;10.38;61.82
9091;BME280;4581;42.416;25.598;2024-02-15T07:38:59;98876.75;;;10.35;60.42
9091;BME280;4581;42.416;25.598;2024-02-15T07:41:30;98877.91;;;10.41;60.18
9091;BME280;4581;42.416;25.598;2024-02-15T07:44:00;98871.69;;;10.64;60.39
9091;BME280;4581;42.416;25.598;2024-02-15T07:46:28;98889.41;;;10.67;57.61
9091;BME280;4581;42.416;25.598;2024-02-15T07:48:55;98882.16;;;10.84;57.86
9091;BME280;4581;42.416;25.598;2024-02-15T07:51:23;98884.69;;;10.69;59.45
9091;BME280;4581;42.416;25.598;2024-02-15T07:53:51;98878.09;;;10.79;56.19
9091;BME280;4581;42.416;25.598;2024-02-15T07:56:18;98882.16;;;10.75;56.35
9091;BME280;4581;42.416;25.598;2024-02-15T07:58:48;98877.59;;;10.52;57.44
9091;BME280;4581;42.416;25.598;2024-02-15T08:01:19;98885.03;;;10.58;57.06
9091;BME280;4581;42.416;25.598;2024-02-15T08:03:52;98875.41;;;10.55;57.04
9091;BME280;4581;42.416;25.598;2024-02-15T08:06:22;98882.34;;;10.74;57.64
9091;BME280;4581;42.416;25.598;2024-02-15T08:08:52;98872.56;;;10.65;57.75
9091;BME280;4581;42.416;25.598;2024-02-15T08:11:19;98868.16;;;10.88;56.50
9091;BME280;4581;42.416;25.598;2024-02-15T08:13:47;98866.41;;;11.36;56.46
9091;BME280;4581;42.416;25.598;2024-02-15T08:16:17;98869.16;;;11.03;55.57
9091;BME280;4581;42.416;25.598;2024-02-15T08:18:45;98869.09;;;11.44;55.12
9091;BME280;4581;42.416;25.598;2024-02-15T08:21:15;98874.91;;;11.80;54.61
9091;BME280;4581;42.416;25.598;2024-02-15T08:23:42;98864.59;;;12.22;55.20
9091;BME280;4581;42.416;25.598;2024-02-15T08:26:09;98868.75;;;12.02;54.25
9091;BME280;4581;42.416;25.598;2024-02-15T08:28:37;98875.38;;;11.99;51.35
9091;BME280;4581;42.416;25.598;2024-02-15T08:31:04;98865.69;;;11.74;54.47
9091;BME280;4581;42.416;25.598;2024-02-15T08:33:31;98867.06;;;12.01;55.22
9091;BME280;4581;42.416;25.598;2024-02-15T08:35:58;98867.81;;;12.71;52.54
9091;BME280;4581;42.416;25.598;2024-02-15T08:38:28;98872.41;;;12.71;49.83
9091;BME280;4581;42.416;25.598;2024-02-15T08:40:54;98879.78;;;12.77;51.67
9091;BME280;4581;42.416;25.598;2024-02-15T08:43:21;98865.53;;;12.83;53.01
9091;BME280;4581;42.416;25.598;2024-02-15T08:45:48;98870.44;;;13.02;50.90
9091;BME280;4581;42.416;25.598;2024-02-15T08:48:14;98865.75;;;13.19;52.11
9091;BME280;4581;42.416;25.598;2024-02-15T08:50:41;98863.34;;;13.38;50.94
9091;BME280;4581;42.416;25.598;2024-02-15T08:53:08;98870.28;;;13.85;49.67
9091;BME280;4581;42.416;25.598;2024-02-15T08:55:35;98865.72;;;14.21;48.23
9091;BME280;4581;42.416;25.598;2024-02-15T08:58:02;98868.53;;;14.28;48.72
9091;BME280;4581;42.416;25.598;2024-02-15T09:00:30;98874.09;;;13.90;47.07
9091;BME280;4581;42.416;25.598;2024-02-15T09:02:58;98863.34;;;13.97;48.30
9091;BME280;4581;42.416;25.598;2024-02-15T09:05:25;98861.66;;;14.11;46.15
9091;BME280;4581;42.416;25.598;2024-02-15T09:07:53;98865.72;;;14.21;46.79
9091;BME280;4581;42.416;25.598;2024-02-15T09:10:20;98862.66;;;14.10;47.16
9091;BME280;4581;42.416;25.598;2024-02-15T09:12:49;98862.34;;;14.34;47.02
9091;BME280;4581;42.416;25.598;2024-02-15T09:15:16;98853.59;;;14.17;46.33
9091;BME280;4581;42.416;25.598;2024-02-15T09:17:44;98864.41;;;14.32;46.44
9091;BME280;4581;42.416;25.598;2024-02-15T09:20:14;98864.69;;;13.72;46.85
9091;BME280;4581;42.416;25.598;2024-02-15T09:22:42;98864.19;;;13.53;47.83
9091;BME280;4581;42.416;25.598;2024-02-15T09:25:10;98850.53;;;13.18;48.30
9091;BME280;4581;42.416;25.598;2024-02-15T09:27:37;98861.59;;;13.45;48.56
9091;BME280;4581;42.416;25.598;2024-02-15T09:30:04;98863.34;;;13.97;47.94
9091;BME280;4581;42.416;25.598;2024-02-15T09:32:34;98867.25;;;14.09;47.61
9091;BME280;4581;42.416;25.598;2024-02-15T09:35:01;98852.97;;;13.27;48.65
9091;BME280;4581;42.416;25.598;2024-02-15T09:37:36;98856.34;;;13.29;49.03
9091;BME280;4581;42.416;25.598;2024-02-15T09:40:11;98863.53;;;14.10;46.29
9091;BME280;4581;42.416;25.598;2024-02-15T09:42:39;98853.25;;;14.05;45.20
9091;BME280;4581;42.416;25.598;2024-02-15T09:45:07;98851.09;;;14.01;44.85
9091;BME280;4581;42.416;25.598;2024-02-15T09:47:38;98848.47;;;14.07;46.23
9091;BME280;4581;42.416;25.598;2024-02-15T09:50:08;98843.25;;;14.06;45.20
9091;BME280;4581;42.416;25.598;2024-02-15T09:52:44;98841.19;;;13.93;45.68
9091;BME280;4581;42.416;25.598;2024-02-15T09:55:11;98830.09;;;14.39;45.43
9091;BME280;4581;42.416;25.598;2024-02-15T09:57:42;98821.78;;;15.38;43.01
9091;BME280;4581;42.416;25.598;2024-02-15T10:00:11;98815.28;;;15.67;41.64
9091;BME280;4581;42.416;25.598;2024-02-15T10:02:50;98819.75;;;15.19;41.23
9091;BME280;4581;42.416;25.598;2024-02-15T10:05:19;98820.47;;;16.64;40.57
9091;BME280;4581;42.416;25.598;2024-02-15T10:07:47;98819.47;;;17.04;38.16
9091;BME280;4581;42.416;25.598;2024-02-15T10:12:51;98801.00;;;16.73;38.23
9091;BME280;4581;42.416;25.598;2024-02-15T10:15:39;98794.84;;;16.45;39.66
9091;BME280;4581;42.416;25.598;2024-02-15T10:18:10;98792.31;;;15.08;40.79
9091;BME280;4581;42.416;25.598;2024-02-15T10:20:39;98795.50;;;14.90;41.59
9091;BME280;4581;42.416;25.598;2024-02-15T10:25:39;98789.00;;;14.42;43.75
9091;BME280;4581;42.416;25.598;2024-02-15T10:28:10;98800.94;;;13.90;43.70
9091;BME280;4581;42.416;25.598;2024-02-15T10:30:38;98798.25;;;13.76;44.77
9091;BME280;4581;42.416;25.598;2024-02-15T10:33:06;98785.94;;;13.58;45.00
9091;BME280;4581;42.416;25.598;2024-02-15T10:35:36;98794.09;;;13.94;44.38
9091;BME280;4581;42.416;25.598;2024-02-15T10:38:07;98786.06;;;14.22;43.08
9091;BME280;4581;42.416;25.598;2024-02-15T10:40:35;98790.50;;;14.08;43.43
9091;BME280;4581;42.416;25.598;2024-02-15T10:43:03;98781.34;;;14.94;43.05
9091;BME280;4581;42.416;25.598;2024-02-15T10:45:32;98782.88;;;15.38;42.70
9091;BME280;4581;42.416;25.598;2024-02-15T10:47:59;98776.13;;;15.55;41.83
9091;BME280;4581;42.416;25.598;2024-02-15T10:50:26;98780.72;;;15.96;41.61
9091;BME280;4581;42.416;25.598;2024-02-15T10:52:57;98779.63;;;16.57;41.01
9091;BME280;4581;42.416;25.598;2024-02-15T10:55:46;98779.22;;;16.73;39.79
9091;BME280;4581;42.416;25.598;2024-02-15T10:58:19;98780.88;;;16.61;38.87
9091;BME280;4581;42.416;25.598;2024-02-15T11:00:47;98773.88;;;16.26;39.56
9091;BME280;4581;42.416;25.598;2024-02-15T11:03:24;98771.84;;;16.54;39.98
9091;BME280;4581;42.416;25.598;2024-02-15T11:05:52;98770.94;;;16.21;39.56
9091;BME280;4581;42.416;25.598;2024-02-15T11:08:22;98771.47;;;15.83;40.02
9091;BME280;4581;42.416;25.598;2024-02-15T11:10:48;98777.94;;;15.48;40.02
9091;BME280;4581;42.416;25.598;2024-02-15T11:13:15;98768.38;;;14.96;40.23
9091;BME280;4581;42.416;25.598;2024-02-15T11:15:46;98758.91;;;14.58;41.88
9091;BME280;4581;42.416;25.598;2024-02-15T11:18:46;98773.31;;;14.80;42.00
9091;BME280;4581;42.416;25.598;2024-02-15T11:21:16;98760.06;;;14.49;42.59
9091;BME280;4581;42.416;25.598;2024-02-15T11:23:44;98759.44;;;14.32;42.77
9091;BME280;4581;42.416;25.598;2024-02-15T11:26:48;98760.34;;;15.10;43.74
9091;BME280;4581;42.416;25.598;2024-02-15T11:35:20;98754.75;;;17.84;35.86
9091;BME280;4581;42.416;25.598;2024-02-15T11:43:08;98754.97;;;21.29;30.69
9091;BME280;4581;42.416;25.598;2024-02-15T11:45:37;98761.03;;;21.78;31.77
9091;BME280;4581;42.416;25.598;2024-02-15T11:48:14;98755.22;;;22.43;29.75
9091;BME280;4581;42.416;25.598;2024-02-15T11:50:41;98750.47;;;23.50;29.21
9091;BME280;4581;42.416;25.598;2024-02-15T11:53:09;98747.88;;;25.05;26.59
9091;BME280;4581;42.416;25.598;2024-02-15T11:55:38;98755.84;;;25.02;26.46
9091;BME280;4581;42.416;25.598;2024-02-15T11:58:06;98740.66;;;25.36;25.06
9091;BME280;4581;42.416;25.598;2024-02-15T12:00:38;98749.50;;;25.38;25.38
9091;BME280;4581;42.416;25.598;2024-02-15T12:03:25;98753.78;;;25.19;25.67
9091;BME280;4581;42.416;25.598;2024-02-15T12:06:27;98739.44;;;24.85;26.49
9091;BME280;4581;42.416;25.598;2024-02-15T12:09:17;98746.53;;;27.65;24.61
9091;BME280;4581;42.416;25.598;2024-02-15T12:12:03;98747.66;;;26.78;23.38
9091;BME280;4581;42.416;25.598;2024-02-15T12:14:49;98746.09;;;24.62;25.59
9091;BME280;4581;42.416;25.598;2024-02-15T12:17:34;98757.88;;;26.78;23.57
9091;BME280;4581;42.416;25.598;2024-02-15T12:20:19;98755.28;;;28.08;22.12
9091;BME280;4581;42.416;25.598;2024-02-15T12:22:52;98751.84;;;27.11;23.08
9091;BME280;4581;42.416;25.598;2024-02-15T12:25:20;98750.41;;;26.78;23.50
9091;BME280;4581;42.416;25.598;2024-02-15T12:27:59;98755.88;;;25.81;24.10
9091;BME280;4581;42.416;25.598;2024-02-15T12:30:33;98752.78;;;26.29;23.12
9091;BME280;4581;42.416;25.598;2024-02-15T12:33:11;98751.81;;;27.21;22.59
9091;BME280;4581;42.416;25.598;2024-02-15T12:35:40;98758.88;;;28.08;21.41
9091;BME280;4581;42.416;25.598;2024-02-15T12:38:12;98763.16;;;28.94;20.79
9091;BME280;4581;42.416;25.598;2024-02-15T12:40:42;98765.44;;;28.87;20.83
9091;BME280;4581;42.416;25.598;2024-02-15T12:43:15;98759.56;;;28.44;21.07
9091;BME280;4581;42.416;25.598;2024-02-15T12:45:42;98776.06;;;29.47;19.76
9091;BME280;4581;42.416;25.598;2024-02-15T12:48:09;98763.88;;;29.43;20.65
9091;BME280;4581;42.416;25.598;2024-02-15T12:50:38;98753.63;;;28.02;20.64
9091;BME280;4581;42.416;25.598;2024-02-15T12:53:05;98754.53;;;27.77;22.17
9091;BME280;4581;42.416;25.598;2024-02-15T12:55:36;98770.56;;;29.42;20.80
9091;BME280;4581;42.416;25.598;2024-02-15T12:58:12;98765.25;;;28.19;20.70
9091;BME280;4581;42.416;25.598;2024-02-15T13:00:42;98764.28;;;27.49;21.30
9091;BME280;4581;42.416;25.598;2024-02-15T13:03:09;98768.91;;;27.99;21.56
9091;BME280;4581;42.416;25.598;2024-02-15T13:05:42;98775.09;;;28.45;21.37
9091;BME280;4581;42.416;25.598;2024-02-15T13:08:10;98762.81;;;25.83;23.00
9091;BME280;4581;42.416;25.598;2024-02-15T13:10:41;98753.25;;;26.16;22.72
9091;BME280;4581;42.416;25.598;2024-02-15T13:13:08;98762.09;;;25.61;23.30
9091;BME280;4581;42.416;25.598;2024-02-15T13:15:36;98747.00;;;24.73;24.27
9091;BME280;4581;42.416;25.598;2024-02-15T13:18:06;98749.38;;;26.12;23.23
9091;BME280;4581;42.416;25.598;2024-02-15T13:20:37;98748.53;;;25.17;24.17
9091;BME280;4581;42.416;25.598;2024-02-15T13:23:06;98747.72;;;26.11;22.98
9091;BME280;4581;42.416;25.598;2024-02-15T13:25:42;98741.16;;;24.91;23.26
9091;BME280;4581;42.416;25.598;2024-02-15T13:28:11;98755.72;;;23.01;26.48
9091;BME280;4581;42.416;25.598;2024-02-15T13:30:40;98740.78;;;22.35;26.43
9091;BME280;4581;42.416;25.598;2024-02-15T13:33:09;98736.38;;;23.13;26.06
9091;BME280;4581;42.416;25.598;2024-02-15T13:35:36;98737.38;;;21.77;27.46
9091;BME280;4581;42.416;25.598;2024-02-15T13:38:03;98749.06;;;20.91;28.99
9091;BME280;4581;42.416;25.598;2024-02-15T13:40:30;98737.69;;;20.52;28.95
9091;BME280;4581;42.416;25.598;2024-02-15T13:42:58;98739.88;;;19.66;30.45
9091;BME280;4581;42.416;25.598;2024-02-15T13:48:00;98751.81;;;19.53;30.77